Rockford, Ohio
Current Conditions -  °F | °C
As of 9:33 PM on Friday 28 Nov 2014 (Local Time) from KAXV Reporting Station
Clear Clear  
Wind Chill: 23°   Ceiling: Unl
Heat Index: 32°   Visibility: 10mi
Dew Point: 21°   Wind: 12mph
Humidity: 64%   Direction: 170°S
Pressure: 30.1"   Gusts: 18mph
Location:  40.69°N, 84.65°W
Report Text: KAXV 290233Z AUTO 17010G16KT 10SM CLR 00/M06 A3010 RMK AO2
Loading
Personal Weather Stations






























Interactive Weather Map New forecast layout! Learn more

10-Day Weather Forecast

Advertisements
Track Severe Weather on mobile